sensor_id;sensor_type;location;lat;lon;timestamp;P1;durP1;ratioP1;P2;durP2;ratioP2
59756;SDS011;45631;51.962;5.974;2022-09-09T00:00:21;3.92;;;2.38;;
59756;SDS011;45631;51.962;5.974;2022-09-09T00:02:50;4.80;;;2.78;;
59756;SDS011;45631;51.962;5.974;2022-09-09T00:05:24;5.47;;;3.13;;
59756;SDS011;45631;51.962;5.974;2022-09-09T00:07:58;5.60;;;3.05;;
59756;SDS011;45631;51.962;5.974;2022-09-09T00:10:30;7.22;;;3.22;;
59756;SDS011;45631;51.962;5.974;2022-09-09T00:13:02;6.53;;;3.67;;
59756;SDS011;45631;51.962;5.974;2022-09-09T00:15:49;7.90;;;3.13;;
59756;SDS011;45631;51.962;5.974;2022-09-09T00:18:26;8.95;;;3.92;;
59756;SDS011;45631;51.962;5.974;2022-09-09T00:21:03;8.02;;;4.00;;
59756;SDS011;45631;51.962;5.974;2022-09-09T00:23:34;6.90;;;3.75;;
59756;SDS011;45631;51.962;5.974;2022-09-09T00:26:08;6.75;;;3.60;;
59756;SDS011;45631;51.962;5.974;2022-09-09T00:28:41;8.85;;;3.90;;
59756;SDS011;45631;51.962;5.974;2022-09-09T00:31:20;7.00;;;3.63;;
59756;SDS011;45631;51.962;5.974;2022-09-09T00:33:52;6.72;;;3.22;;
59756;SDS011;45631;51.962;5.974;2022-09-09T00:36:23;6.97;;;3.80;;
59756;SDS011;45631;51.962;5.974;2022-09-09T00:38:56;5.90;;;3.00;;
59756;SDS011;45631;51.962;5.974;2022-09-09T00:41:29;5.43;;;3.00;;
59756;SDS011;45631;51.962;5.974;2022-09-09T00:44:15;5.85;;;3.20;;
59756;SDS011;45631;51.962;5.974;2022-09-09T00:47:07;7.05;;;2.90;;
59756;SDS011;45631;51.962;5.974;2022-09-09T00:49:49;7.75;;;3.00;;
59756;SDS011;45631;51.962;5.974;2022-09-09T00:52:32;5.15;;;2.90;;
59756;SDS011;45631;51.962;5.974;2022-09-09T00:55:09;7.30;;;2.88;;
59756;SDS011;45631;51.962;5.974;2022-09-09T00:57:45;6.13;;;2.70;;
59756;SDS011;45631;51.962;5.974;2022-09-09T01:00:20;6.47;;;2.60;;
59756;SDS011;45631;51.962;5.974;2022-09-09T01:03:05;6.65;;;2.75;;
59756;SDS011;45631;51.962;5.974;2022-09-09T01:05:48;5.45;;;2.30;;
59756;SDS011;45631;51.962;5.974;2022-09-09T01:08:29;5.75;;;2.35;;
59756;SDS011;45631;51.962;5.974;2022-09-09T01:11:20;5.20;;;2.20;;
59756;SDS011;45631;51.962;5.974;2022-09-09T01:16:21;7.85;;;2.30;;
59756;SDS011;45631;51.962;5.974;2022-09-09T01:18:51;6.22;;;2.65;;
59756;SDS011;45631;51.962;5.974;2022-09-09T01:21:22;6.53;;;2.58;;
59756;SDS011;45631;51.962;5.974;2022-09-09T01:24:04;4.93;;;2.70;;
59756;SDS011;45631;51.962;5.974;2022-09-09T01:26:48;6.45;;;3.15;;
59756;SDS011;45631;51.962;5.974;2022-09-09T01:29:19;7.53;;;3.20;;
59756;SDS011;45631;51.962;5.974;2022-09-09T01:31:53;5.88;;;2.95;;
59756;SDS011;45631;51.962;5.974;2022-09-09T01:34:23;7.95;;;2.58;;
59756;SDS011;45631;51.962;5.974;2022-09-09T01:36:56;5.88;;;2.83;;
59756;SDS011;45631;51.962;5.974;2022-09-09T01:39:27;6.28;;;2.67;;
59756;SDS011;45631;51.962;5.974;2022-09-09T01:41:57;5.07;;;2.55;;
59756;SDS011;45631;51.962;5.974;2022-09-09T01:44:25;4.88;;;2.60;;
59756;SDS011;45631;51.962;5.974;2022-09-09T01:46:54;4.72;;;2.50;;
59756;SDS011;45631;51.962;5.974;2022-09-09T01:49:22;5.35;;;2.60;;
59756;SDS011;45631;51.962;5.974;2022-09-09T01:51:51;5.07;;;2.25;;
59756;SDS011;45631;51.962;5.974;2022-09-09T01:54:21;4.82;;;2.45;;
59756;SDS011;45631;51.962;5.974;2022-09-09T01:56:59;5.05;;;2.53;;
59756;SDS011;45631;51.962;5.974;2022-09-09T01:59:41;4.80;;;2.40;;
59756;SDS011;45631;51.962;5.974;2022-09-09T02:02:18;5.07;;;2.58;;
59756;SDS011;45631;51.962;5.974;2022-09-09T02:04:50;6.60;;;2.80;;
59756;SDS011;45631;51.962;5.974;2022-09-09T02:07:34;5.65;;;2.33;;
59756;SDS011;45631;51.962;5.974;2022-09-09T02:10:09;8.43;;;2.97;;
59756;SDS011;45631;51.962;5.974;2022-09-09T02:12:41;6.22;;;2.80;;
59756;SDS011;45631;51.962;5.974;2022-09-09T02:15:15;5.15;;;2.83;;
59756;SDS011;45631;51.962;5.974;2022-09-09T02:17:48;7.65;;;3.22;;
59756;SDS011;45631;51.962;5.974;2022-09-09T02:20:20;7.85;;;3.28;;
59756;SDS011;45631;51.962;5.974;2022-09-09T02:22:50;7.15;;;2.88;;
59756;SDS011;45631;51.962;5.974;2022-09-09T02:25:22;6.57;;;2.85;;
59756;SDS011;45631;51.962;5.974;2022-09-09T02:27:54;7.63;;;3.03;;
59756;SDS011;45631;51.962;5.974;2022-09-09T02:30:25;5.10;;;2.90;;
59756;SDS011;45631;51.962;5.974;2022-09-09T02:32:57;5.60;;;2.70;;
59756;SDS011;45631;51.962;5.974;2022-09-09T02:35:28;6.60;;;3.20;;
59756;SDS011;45631;51.962;5.974;2022-09-09T02:37:59;6.55;;;3.22;;
59756;SDS011;45631;51.962;5.974;2022-09-09T02:40:31;7.22;;;2.83;;
59756;SDS011;45631;51.962;5.974;2022-09-09T02:43:00;6.60;;;2.90;;
59756;SDS011;45631;51.962;5.974;2022-09-09T02:45:31;8.57;;;3.28;;
59756;SDS011;45631;51.962;5.974;2022-09-09T02:48:06;5.50;;;3.00;;
59756;SDS011;45631;51.962;5.974;2022-09-09T02:50:41;6.35;;;3.22;;
59756;SDS011;45631;51.962;5.974;2022-09-09T02:53:18;7.43;;;3.60;;
59756;SDS011;45631;51.962;5.974;2022-09-09T02:55:49;6.65;;;3.03;;
59756;SDS011;45631;51.962;5.974;2022-09-09T02:58:24;6.32;;;3.50;;
59756;SDS011;45631;51.962;5.974;2022-09-09T03:00:52;5.57;;;3.00;;
59756;SDS011;45631;51.962;5.974;2022-09-09T03:03:20;7.70;;;3.53;;
59756;SDS011;45631;51.962;5.974;2022-09-09T03:05:50;8.35;;;3.65;;
59756;SDS011;45631;51.962;5.974;2022-09-09T03:08:19;7.80;;;3.28;;
59756;SDS011;45631;51.962;5.974;2022-09-09T03:10:47;7.57;;;3.53;;
59756;SDS011;45631;51.962;5.974;2022-09-09T03:13:15;7.57;;;3.38;;
59756;SDS011;45631;51.962;5.974;2022-09-09T03:15:47;7.53;;;3.30;;
59756;SDS011;45631;51.962;5.974;2022-09-09T03:18:16;6.88;;;3.55;;
59756;SDS011;45631;51.962;5.974;2022-09-09T03:20:45;6.53;;;3.47;;
59756;SDS011;45631;51.962;5.974;2022-09-09T03:23:14;9.00;;;3.95;;
59756;SDS011;45631;51.962;5.974;2022-09-09T03:25:46;8.35;;;3.42;;
59756;SDS011;45631;51.962;5.974;2022-09-09T03:28:14;8.25;;;3.58;;
59756;SDS011;45631;51.962;5.974;2022-09-09T03:30:42;6.03;;;3.42;;
59756;SDS011;45631;51.962;5.974;2022-09-09T03:33:12;9.18;;;3.40;;
59756;SDS011;45631;51.962;5.974;2022-09-09T03:35:44;9.82;;;3.95;;
59756;SDS011;45631;51.962;5.974;2022-09-09T03:38:15;9.70;;;4.10;;
59756;SDS011;45631;51.962;5.974;2022-09-09T03:40:48;7.50;;;3.75;;
59756;SDS011;45631;51.962;5.974;2022-09-09T03:43:17;7.50;;;4.25;;
59756;SDS011;45631;51.962;5.974;2022-09-09T03:45:46;8.60;;;3.85;;
59756;SDS011;45631;51.962;5.974;2022-09-09T03:48:16;7.25;;;3.83;;
59756;SDS011;45631;51.962;5.974;2022-09-09T03:50:45;6.78;;;3.70;;
59756;SDS011;45631;51.962;5.974;2022-09-09T03:53:14;8.60;;;3.72;;
59756;SDS011;45631;51.962;5.974;2022-09-09T03:55:45;11.75;;;3.92;;
59756;SDS011;45631;51.962;5.974;2022-09-09T03:58:14;8.80;;;4.13;;
59756;SDS011;45631;51.962;5.974;2022-09-09T04:00:52;8.75;;;4.57;;
59756;SDS011;45631;51.962;5.974;2022-09-09T04:03:23;12.02;;;4.45;;
59756;SDS011;45631;51.962;5.974;2022-09-09T04:05:54;9.00;;;4.00;;
59756;SDS011;45631;51.962;5.974;2022-09-09T04:08:23;6.78;;;3.65;;
59756;SDS011;45631;51.962;5.974;2022-09-09T04:10:52;9.07;;;4.18;;
59756;SDS011;45631;51.962;5.974;2022-09-09T04:13:24;12.32;;;4.07;;
59756;SDS011;45631;51.962;5.974;2022-09-09T04:15:53;7.25;;;4.38;;
59756;SDS011;45631;51.962;5.974;2022-09-09T04:18:24;9.82;;;4.05;;
59756;SDS011;45631;51.962;5.974;2022-09-09T04:20:52;9.98;;;3.97;;
59756;SDS011;45631;51.962;5.974;2022-09-09T04:23:21;9.50;;;4.82;;
59756;SDS011;45631;51.962;5.974;2022-09-09T04:25:50;8.60;;;4.50;;
59756;SDS011;45631;51.962;5.974;2022-09-09T04:28:21;9.13;;;4.18;;
59756;SDS011;45631;51.962;5.974;2022-09-09T04:30:50;7.65;;;4.38;;
59756;SDS011;45631;51.962;5.974;2022-09-09T04:33:19;8.68;;;4.18;;
59756;SDS011;45631;51.962;5.974;2022-09-09T04:35:49;9.57;;;4.22;;
59756;SDS011;45631;51.962;5.974;2022-09-09T04:38:20;7.93;;;3.80;;
59756;SDS011;45631;51.962;5.974;2022-09-09T04:40:50;7.95;;;4.13;;
59756;SDS011;45631;51.962;5.974;2022-09-09T04:43:20;7.35;;;3.90;;
59756;SDS011;45631;51.962;5.974;2022-09-09T04:45:48;10.50;;;3.70;;
59756;SDS011;45631;51.962;5.974;2022-09-09T04:48:18;9.27;;;4.00;;
59756;SDS011;45631;51.962;5.974;2022-09-09T04:50:55;7.47;;;4.10;;
59756;SDS011;45631;51.962;5.974;2022-09-09T04:53:24;8.80;;;4.22;;
59756;SDS011;45631;51.962;5.974;2022-09-09T04:55:52;8.40;;;4.90;;
59756;SDS011;45631;51.962;5.974;2022-09-09T04:58:20;8.98;;;3.95;;
59756;SDS011;45631;51.962;5.974;2022-09-09T05:00:50;9.50;;;4.43;;
59756;SDS011;45631;51.962;5.974;2022-09-09T05:03:18;13.80;;;4.43;;
59756;SDS011;45631;51.962;5.974;2022-09-09T05:05:46;10.25;;;4.63;;
59756;SDS011;45631;51.962;5.974;2022-09-09T05:08:15;10.07;;;4.35;;
59756;SDS011;45631;51.962;5.974;2022-09-09T05:10:44;8.40;;;4.40;;
59756;SDS011;45631;51.962;5.974;2022-09-09T05:13:12;9.57;;;4.40;;
59756;SDS011;45631;51.962;5.974;2022-09-09T05:15:40;7.97;;;4.47;;
59756;SDS011;45631;51.962;5.974;2022-09-09T05:18:09;13.40;;;4.75;;
59756;SDS011;45631;51.962;5.974;2022-09-09T05:20:37;9.93;;;4.75;;
59756;SDS011;45631;51.962;5.974;2022-09-09T05:23:05;9.98;;;4.85;;
59756;SDS011;45631;51.962;5.974;2022-09-09T05:25:34;9.90;;;4.28;;
59756;SDS011;45631;51.962;5.974;2022-09-09T05:28:02;11.55;;;4.82;;
59756;SDS011;45631;51.962;5.974;2022-09-09T05:30:31;11.95;;;4.15;;
59756;SDS011;45631;51.962;5.974;2022-09-09T05:33:00;9.60;;;4.93;;
59756;SDS011;45631;51.962;5.974;2022-09-09T05:35:28;8.75;;;4.28;;
59756;SDS011;45631;51.962;5.974;2022-09-09T05:37:58;9.93;;;4.22;;
59756;SDS011;45631;51.962;5.974;2022-09-09T05:40:28;11.57;;;4.70;;
59756;SDS011;45631;51.962;5.974;2022-09-09T05:43:00;9.68;;;4.63;;
59756;SDS011;45631;51.962;5.974;2022-09-09T05:45:29;10.68;;;4.30;;
59756;SDS011;45631;51.962;5.974;2022-09-09T05:47:57;11.55;;;4.03;;
59756;SDS011;45631;51.962;5.974;2022-09-09T05:50:26;11.82;;;4.97;;
59756;SDS011;45631;51.962;5.974;2022-09-09T05:52:57;12.52;;;4.50;;
59756;SDS011;45631;51.962;5.974;2022-09-09T05:55:25;10.82;;;3.90;;
59756;SDS011;45631;51.962;5.974;2022-09-09T05:57:54;9.68;;;3.95;;
59756;SDS011;45631;51.962;5.974;2022-09-09T06:00:23;10.02;;;4.20;;
59756;SDS011;45631;51.962;5.974;2022-09-09T06:02:52;9.57;;;3.92;;
59756;SDS011;45631;51.962;5.974;2022-09-09T06:05:20;9.77;;;4.00;;
59756;SDS011;45631;51.962;5.974;2022-09-09T06:07:52;10.25;;;4.22;;
59756;SDS011;45631;51.962;5.974;2022-09-09T06:10:20;9.43;;;4.07;;
59756;SDS011;45631;51.962;5.974;2022-09-09T06:12:48;10.48;;;4.47;;
59756;SDS011;45631;51.962;5.974;2022-09-09T06:15:16;9.35;;;3.78;;
59756;SDS011;45631;51.962;5.974;2022-09-09T06:17:45;11.82;;;4.70;;
59756;SDS011;45631;51.962;5.974;2022-09-09T06:20:13;9.52;;;3.65;;
59756;SDS011;45631;51.962;5.974;2022-09-09T06:22:41;12.82;;;4.25;;
59756;SDS011;45631;51.962;5.974;2022-09-09T06:25:12;13.00;;;4.82;;
59756;SDS011;45631;51.962;5.974;2022-09-09T06:27:40;11.65;;;4.50;;
59756;SDS011;45631;51.962;5.974;2022-09-09T06:30:09;7.80;;;3.42;;
59756;SDS011;45631;51.962;5.974;2022-09-09T06:32:38;14.73;;;3.90;;
59756;SDS011;45631;51.962;5.974;2022-09-09T06:35:07;10.32;;;3.70;;
59756;SDS011;45631;51.962;5.974;2022-09-09T06:37:36;10.50;;;3.92;;
59756;SDS011;45631;51.962;5.974;2022-09-09T06:40:04;11.35;;;3.47;;
59756;SDS011;45631;51.962;5.974;2022-09-09T06:42:33;14.73;;;3.63;;
59756;SDS011;45631;51.962;5.974;2022-09-09T06:45:01;9.60;;;3.35;;
59756;SDS011;45631;51.962;5.974;2022-09-09T06:47:30;9.98;;;3.00;;
59756;SDS011;45631;51.962;5.974;2022-09-09T06:49:58;11.25;;;3.00;;
59756;SDS011;45631;51.962;5.974;2022-09-09T06:52:28;12.25;;;2.92;;
59756;SDS011;45631;51.962;5.974;2022-09-09T06:54:56;11.48;;;3.35;;
59756;SDS011;45631;51.962;5.974;2022-09-09T06:57:25;8.18;;;2.83;;
59756;SDS011;45631;51.962;5.974;2022-09-09T07:00:03;10.13;;;3.22;;
59756;SDS011;45631;51.962;5.974;2022-09-09T07:02:31;10.15;;;3.15;;
59756;SDS011;45631;51.962;5.974;2022-09-09T07:05:05;9.25;;;2.85;;
59756;SDS011;45631;51.962;5.974;2022-09-09T07:07:35;14.38;;;3.63;;
59756;SDS011;45631;51.962;5.974;2022-09-09T07:10:04;12.95;;;3.55;;
59756;SDS011;45631;51.962;5.974;2022-09-09T07:12:33;9.82;;;2.78;;
59756;SDS011;45631;51.962;5.974;2022-09-09T07:15:02;10.65;;;2.95;;
59756;SDS011;45631;51.962;5.974;2022-09-09T07:17:30;8.32;;;2.67;;
59756;SDS011;45631;51.962;5.974;2022-09-09T07:19:58;9.55;;;2.65;;
59756;SDS011;45631;51.962;5.974;2022-09-09T07:22:27;11.07;;;3.33;;
59756;SDS011;45631;51.962;5.974;2022-09-09T07:24:57;10.45;;;2.85;;
59756;SDS011;45631;51.962;5.974;2022-09-09T07:27:25;11.02;;;3.55;;
59756;SDS011;45631;51.962;5.974;2022-09-09T07:29:53;9.48;;;3.10;;
59756;SDS011;45631;51.962;5.974;2022-09-09T07:32:21;10.88;;;2.78;;
59756;SDS011;45631;51.962;5.974;2022-09-09T07:34:49;9.32;;;3.13;;
59756;SDS011;45631;51.962;5.974;2022-09-09T07:37:17;9.50;;;3.00;;
59756;SDS011;45631;51.962;5.974;2022-09-09T07:39:45;8.93;;;2.67;;
59756;SDS011;45631;51.962;5.974;2022-09-09T07:42:15;9.38;;;2.92;;
59756;SDS011;45631;51.962;5.974;2022-09-09T07:44:43;11.30;;;2.95;;
59756;SDS011;45631;51.962;5.974;2022-09-09T07:47:11;10.07;;;2.95;;
59756;SDS011;45631;51.962;5.974;2022-09-09T07:49:39;10.38;;;3.08;;
59756;SDS011;45631;51.962;5.974;2022-09-09T07:52:07;9.57;;;2.92;;
59756;SDS011;45631;51.962;5.974;2022-09-09T07:54:35;8.90;;;2.72;;
59756;SDS011;45631;51.962;5.974;2022-09-09T07:57:03;7.97;;;2.35;;
59756;SDS011;45631;51.962;5.974;2022-09-09T07:59:33;9.48;;;2.72;;
59756;SDS011;45631;51.962;5.974;2022-09-09T08:02:01;9.18;;;2.22;;
59756;SDS011;45631;51.962;5.974;2022-09-09T08:04:29;14.10;;;2.78;;
59756;SDS011;45631;51.962;5.974;2022-09-09T08:06:58;10.85;;;2.47;;
59756;SDS011;45631;51.962;5.974;2022-09-09T08:09:27;10.80;;;2.65;;
59756;SDS011;45631;51.962;5.974;2022-09-09T08:11:58;8.13;;;2.17;;
59756;SDS011;45631;51.962;5.974;2022-09-09T08:14:27;8.60;;;2.05;;
59756;SDS011;45631;51.962;5.974;2022-09-09T08:16:57;10.70;;;2.75;;
59756;SDS011;45631;51.962;5.974;2022-09-09T08:19:26;10.68;;;2.33;;
59756;SDS011;45631;51.962;5.974;2022-09-09T08:21:55;10.52;;;2.40;;
59756;SDS011;45631;51.962;5.974;2022-09-09T08:24:24;7.18;;;2.58;;
59756;SDS011;45631;51.962;5.974;2022-09-09T08:26:52;6.40;;;1.83;;
59756;SDS011;45631;51.962;5.974;2022-09-09T08:29:20;10.20;;;2.33;;
59756;SDS011;45631;51.962;5.974;2022-09-09T08:31:49;11.85;;;2.17;;
59756;SDS011;45631;51.962;5.974;2022-09-09T08:34:20;8.63;;;1.98;;
59756;SDS011;45631;51.962;5.974;2022-09-09T08:36:49;10.90;;;1.95;;
59756;SDS011;45631;51.962;5.974;2022-09-09T08:39:18;7.25;;;2.03;;
59756;SDS011;45631;51.962;5.974;2022-09-09T08:42:01;8.93;;;2.03;;
59756;SDS011;45631;51.962;5.974;2022-09-09T08:47:33;7.60;;;1.92;;
59756;SDS011;45631;51.962;5.974;2022-09-09T08:50:18;8.85;;;2.28;;
59756;SDS011;45631;51.962;5.974;2022-09-09T08:52:52;9.07;;;2.47;;
59756;SDS011;45631;51.962;5.974;2022-09-09T08:55:29;10.38;;;2.10;;
59756;SDS011;45631;51.962;5.974;2022-09-09T08:58:08;7.93;;;1.83;;
59756;SDS011;45631;51.962;5.974;2022-09-09T09:00:42;11.38;;;2.30;;
59756;SDS011;45631;51.962;5.974;2022-09-09T09:03:23;6.68;;;2.00;;
59756;SDS011;45631;51.962;5.974;2022-09-09T09:05:59;8.82;;;1.95;;
59756;SDS011;45631;51.962;5.974;2022-09-09T09:08:35;7.95;;;2.30;;
59756;SDS011;45631;51.962;5.974;2022-09-09T09:11:11;7.45;;;1.67;;
59756;SDS011;45631;51.962;5.974;2022-09-09T09:13:40;10.70;;;2.00;;
59756;SDS011;45631;51.962;5.974;2022-09-09T09:16:14;11.55;;;2.10;;
59756;SDS011;45631;51.962;5.974;2022-09-09T09:18:49;7.55;;;1.98;;
59756;SDS011;45631;51.962;5.974;2022-09-09T09:21:25;8.77;;;1.65;;
59756;SDS011;45631;51.962;5.974;2022-09-09T09:24:02;7.93;;;1.90;;
59756;SDS011;45631;51.962;5.974;2022-09-09T09:26:35;11.40;;;2.13;;
59756;SDS011;45631;51.962;5.974;2022-09-09T09:29:07;6.82;;;1.73;;
59756;SDS011;45631;51.962;5.974;2022-09-09T09:31:38;7.22;;;1.77;;
59756;SDS011;45631;51.962;5.974;2022-09-09T09:34:07;8.57;;;1.60;;
59756;SDS011;45631;51.962;5.974;2022-09-09T09:36:40;9.80;;;1.60;;
59756;SDS011;45631;51.962;5.974;2022-09-09T09:39:21;7.45;;;1.48;;
59756;SDS011;45631;51.962;5.974;2022-09-09T09:42:11;8.77;;;2.00;;
59756;SDS011;45631;51.962;5.974;2022-09-09T09:47:12;7.93;;;1.73;;
59756;SDS011;45631;51.962;5.974;2022-09-09T09:49:50;8.98;;;1.85;;
59756;SDS011;45631;51.962;5.974;2022-09-09T09:52:21;6.20;;;1.60;;
59756;SDS011;45631;51.962;5.974;2022-09-09T09:54:52;8.27;;;1.63;;
59756;SDS011;45631;51.962;5.974;2022-09-09T09:57:22;8.30;;;1.65;;
59756;SDS011;45631;51.962;5.974;2022-09-09T10:00:03;8.60;;;1.67;;
59756;SDS011;45631;51.962;5.974;2022-09-09T10:02:37;8.38;;;2.05;;
59756;SDS011;45631;51.962;5.974;2022-09-09T10:05:12;7.13;;;1.75;;
59756;SDS011;45631;51.962;5.974;2022-09-09T10:07:43;8.35;;;1.92;;
59756;SDS011;45631;51.962;5.974;2022-09-09T10:10:13;6.47;;;1.40;;
59756;SDS011;45631;51.962;5.974;2022-09-09T10:12:52;8.27;;;1.85;;
59756;SDS011;45631;51.962;5.974;2022-09-09T10:15:32;8.32;;;2.00;;
59756;SDS011;45631;51.962;5.974;2022-09-09T10:18:16;10.00;;;1.95;;
59756;SDS011;45631;51.962;5.974;2022-09-09T10:21:06;10.13;;;1.58;;
59756;SDS011;45631;51.962;5.974;2022-09-09T10:26:28;10.57;;;1.55;;
59756;SDS011;45631;51.962;5.974;2022-09-09T10:29:11;8.32;;;1.50;;
59756;SDS011;45631;51.962;5.974;2022-09-09T10:31:51;8.07;;;1.52;;
59756;SDS011;45631;51.962;5.974;2022-09-09T10:34:36;8.50;;;1.83;;
59756;SDS011;45631;51.962;5.974;2022-09-09T10:37:19;9.35;;;1.83;;
59756;SDS011;45631;51.962;5.974;2022-09-09T10:40:04;7.68;;;1.92;;
59756;SDS011;45631;51.962;5.974;2022-09-09T10:42:46;7.28;;;1.90;;
59756;SDS011;45631;51.962;5.974;2022-09-09T10:45:17;11.95;;;2.15;;
59756;SDS011;45631;51.962;5.974;2022-09-09T10:50:29;10.40;;;1.65;;
59756;SDS011;45631;51.962;5.974;2022-09-09T10:53:36;9.65;;;1.80;;
59756;SDS011;45631;51.962;5.974;2022-09-09T10:56:20;8.70;;;1.70;;
59756;SDS011;45631;51.962;5.974;2022-09-09T10:58:50;10.05;;;2.05;;
59756;SDS011;45631;51.962;5.974;2022-09-09T11:01:24;7.20;;;1.60;;
59756;SDS011;45631;51.962;5.974;2022-09-09T11:04:08;9.07;;;1.52;;
59756;SDS011;45631;51.962;5.974;2022-09-09T11:06:43;7.57;;;1.75;;
59756;SDS011;45631;51.962;5.974;2022-09-09T11:09:19;7.05;;;1.70;;
59756;SDS011;45631;51.962;5.974;2022-09-09T11:11:52;5.15;;;1.38;;
59756;SDS011;45631;51.962;5.974;2022-09-09T11:14:22;8.07;;;1.70;;
59756;SDS011;45631;51.962;5.974;2022-09-09T11:17:03;8.35;;;1.67;;
59756;SDS011;45631;51.962;5.974;2022-09-09T11:19:37;7.35;;;1.77;;
59756;SDS011;45631;51.962;5.974;2022-09-09T11:22:12;5.75;;;1.55;;
59756;SDS011;45631;51.962;5.974;2022-09-09T11:24:45;7.13;;;1.50;;
59756;SDS011;45631;51.962;5.974;2022-09-09T11:27:20;9.00;;;1.58;;
59756;SDS011;45631;51.962;5.974;2022-09-09T11:33:19;5.90;;;1.50;;
59756;SDS011;45631;51.962;5.974;2022-09-09T11:36:19;5.95;;;1.52;;
59756;SDS011;45631;51.962;5.974;2022-09-09T11:39:05;6.90;;;1.70;;
59756;SDS011;45631;51.962;5.974;2022-09-09T11:41:44;6.07;;;1.50;;
59756;SDS011;45631;51.962;5.974;2022-09-09T11:44:16;5.97;;;1.60;;
59756;SDS011;45631;51.962;5.974;2022-09-09T11:46:48;7.72;;;1.70;;
59756;SDS011;45631;51.962;5.974;2022-09-09T11:49:26;6.40;;;1.60;;
59756;SDS011;45631;51.962;5.974;2022-09-09T11:51:55;7.80;;;1.63;;
59756;SDS011;45631;51.962;5.974;2022-09-09T11:54:29;6.57;;;1.65;;
59756;SDS011;45631;51.962;5.974;2022-09-09T11:56:59;6.88;;;1.70;;
59756;SDS011;45631;51.962;5.974;2022-09-09T11:59:29;7.95;;;1.52;;
59756;SDS011;45631;51.962;5.974;2022-09-09T12:01:58;7.47;;;1.88;;
59756;SDS011;45631;51.962;5.974;2022-09-09T12:04:33;7.40;;;1.77;;
59756;SDS011;45631;51.962;5.974;2022-09-09T12:07:22;7.63;;;1.80;;
59756;SDS011;45631;51.962;5.974;2022-09-09T12:09:58;7.18;;;2.03;;
59756;SDS011;45631;51.962;5.974;2022-09-09T12:12:29;8.18;;;1.83;;
59756;SDS011;45631;51.962;5.974;2022-09-09T12:15:15;7.50;;;1.70;;
59756;SDS011;45631;51.962;5.974;2022-09-09T12:17:47;7.85;;;2.20;;
59756;SDS011;45631;51.962;5.974;2022-09-09T12:20:18;6.57;;;1.90;;
59756;SDS011;45631;51.962;5.974;2022-09-09T12:22:55;7.45;;;1.98;;
59756;SDS011;45631;51.962;5.974;2022-09-09T12:25:59;6.15;;;1.80;;
59756;SDS011;45631;51.962;5.974;2022-09-09T12:28:46;5.00;;;1.55;;
59756;SDS011;45631;51.962;5.974;2022-09-09T12:31:23;6.03;;;1.73;;
59756;SDS011;45631;51.962;5.974;2022-09-09T12:34:02;5.25;;;1.75;;
59756;SDS011;45631;51.962;5.974;2022-09-09T12:36:38;5.72;;;1.40;;
59756;SDS011;45631;51.962;5.974;2022-09-09T12:39:10;6.43;;;1.40;;
59756;SDS011;45631;51.962;5.974;2022-09-09T12:41:50;6.82;;;1.63;;
59756;SDS011;45631;51.962;5.974;2022-09-09T12:44:24;8.48;;;1.90;;
59756;SDS011;45631;51.962;5.974;2022-09-09T12:46:56;6.90;;;1.40;;
59756;SDS011;45631;51.962;5.974;2022-09-09T12:49:28;4.75;;;1.38;;
59756;SDS011;45631;51.962;5.974;2022-09-09T13:09:21;4.63;;;1.30;;
59756;SDS011;45631;51.962;5.974;2022-09-09T13:11:50;4.13;;;1.23;;
59756;SDS011;45631;51.962;5.974;2022-09-09T13:14:36;6.15;;;1.55;;
59756;SDS011;45631;51.962;5.974;2022-09-09T13:17:17;8.30;;;1.60;;
59756;SDS011;45631;51.962;5.974;2022-09-09T13:19:48;3.78;;;1.20;;
59756;SDS011;45631;51.962;5.974;2022-09-09T13:22:23;5.20;;;1.40;;
59756;SDS011;45631;51.962;5.974;2022-09-09T13:29:21;8.70;;;1.67;;
59756;SDS011;45631;51.962;5.974;2022-09-09T13:36:29;5.82;;;1.30;;
59756;SDS011;45631;51.962;5.974;2022-09-09T13:38:59;4.80;;;1.65;;
59756;SDS011;45631;51.962;5.974;2022-09-09T13:41:29;5.38;;;1.60;;
59756;SDS011;45631;51.962;5.974;2022-09-09T13:44:00;5.97;;;1.80;;
59756;SDS011;45631;51.962;5.974;2022-09-09T13:46:32;5.97;;;1.50;;
59756;SDS011;45631;51.962;5.974;2022-09-09T13:49:02;6.95;;;1.65;;
59756;SDS011;45631;51.962;5.974;2022-09-09T13:51:50;6.80;;;1.50;;
59756;SDS011;45631;51.962;5.974;2022-09-09T13:54:50;6.90;;;1.85;;
59756;SDS011;45631;51.962;5.974;2022-09-09T13:57:21;7.68;;;1.70;;
59756;SDS011;45631;51.962;5.974;2022-09-09T13:59:52;8.25;;;1.70;;
59756;SDS011;45631;51.962;5.974;2022-09-09T14:02:33;5.30;;;1.60;;
59756;SDS011;45631;51.962;5.974;2022-09-09T14:05:01;3.50;;;1.40;;
59756;SDS011;45631;51.962;5.974;2022-09-09T14:07:29;6.60;;;1.50;;
59756;SDS011;45631;51.962;5.974;2022-09-09T14:09:58;4.40;;;1.20;;
59756;SDS011;45631;51.962;5.974;2022-09-09T14:12:26;5.65;;;1.23;;
59756;SDS011;45631;51.962;5.974;2022-09-09T14:14:54;4.43;;;1.30;;
59756;SDS011;45631;51.962;5.974;2022-09-09T14:17:23;5.03;;;1.40;;
59756;SDS011;45631;51.962;5.974;2022-09-09T14:19:52;7.22;;;1.77;;
59756;SDS011;45631;51.962;5.974;2022-09-09T14:22:21;4.95;;;1.38;;
59756;SDS011;45631;51.962;5.974;2022-09-09T14:24:49;5.85;;;1.55;;
59756;SDS011;45631;51.962;5.974;2022-09-09T14:27:20;5.22;;;1.63;;
59756;SDS011;45631;51.962;5.974;2022-09-09T14:29:48;5.40;;;1.70;;
59756;SDS011;45631;51.962;5.974;2022-09-09T14:32:16;6.93;;;1.58;;
59756;SDS011;45631;51.962;5.974;2022-09-09T14:34:44;6.10;;;1.60;;
59756;SDS011;45631;51.962;5.974;2022-09-09T14:37:18;7.28;;;1.60;;
59756;SDS011;45631;51.962;5.974;2022-09-09T14:39:47;4.20;;;1.42;;
59756;SDS011;45631;51.962;5.974;2022-09-09T14:42:17;5.82;;;1.80;;
59756;SDS011;45631;51.962;5.974;2022-09-09T14:44:46;5.00;;;1.60;;
59756;SDS011;45631;51.962;5.974;2022-09-09T14:47:14;6.40;;;1.42;;
59756;SDS011;45631;51.962;5.974;2022-09-09T14:49:42;5.20;;;1.50;;
59756;SDS011;45631;51.962;5.974;2022-09-09T14:52:12;6.78;;;1.55;;
59756;SDS011;45631;51.962;5.974;2022-09-09T14:54:42;4.43;;;1.52;;
59756;SDS011;45631;51.962;5.974;2022-09-09T14:57:09;6.20;;;1.55;;
59756;SDS011;45631;51.962;5.974;2022-09-09T14:59:37;4.55;;;1.25;;
59756;SDS011;45631;51.962;5.974;2022-09-09T15:02:07;4.45;;;1.40;;
59756;SDS011;45631;51.962;5.974;2022-09-09T15:04:36;5.72;;;1.52;;
59756;SDS011;45631;51.962;5.974;2022-09-09T15:07:04;6.88;;;1.80;;
59756;SDS011;45631;51.962;5.974;2022-09-09T15:09:32;5.55;;;1.27;;
59756;SDS011;45631;51.962;5.974;2022-09-09T15:12:02;5.03;;;1.35;;
59756;SDS011;45631;51.962;5.974;2022-09-09T15:14:30;9.00;;;1.60;;
59756;SDS011;45631;51.962;5.974;2022-09-09T15:16:59;5.55;;;1.33;;
59756;SDS011;45631;51.962;5.974;2022-09-09T15:19:27;7.88;;;1.35;;
59756;SDS011;45631;51.962;5.974;2022-09-09T15:21:55;5.07;;;1.35;;
59756;SDS011;45631;51.962;5.974;2022-09-09T15:24:23;4.68;;;1.27;;
59756;SDS011;45631;51.962;5.974;2022-09-09T15:26:52;6.43;;;1.38;;
59756;SDS011;45631;51.962;5.974;2022-09-09T15:29:21;5.70;;;1.30;;
59756;SDS011;45631;51.962;5.974;2022-09-09T15:31:49;5.15;;;1.27;;
59756;SDS011;45631;51.962;5.974;2022-09-09T15:34:17;4.57;;;1.17;;
59756;SDS011;45631;51.962;5.974;2022-09-09T15:36:45;5.07;;;1.20;;
59756;SDS011;45631;51.962;5.974;2022-09-09T15:39:14;6.10;;;1.30;;
59756;SDS011;45631;51.962;5.974;2022-09-09T15:41:43;5.95;;;1.35;;
59756;SDS011;45631;51.962;5.974;2022-09-09T15:44:12;4.47;;;1.20;;
59756;SDS011;45631;51.962;5.974;2022-09-09T15:46:43;7.45;;;1.30;;
59756;SDS011;45631;51.962;5.974;2022-09-09T15:49:13;6.07;;;1.75;;
59756;SDS011;45631;51.962;5.974;2022-09-09T15:51:44;7.55;;;1.60;;
59756;SDS011;45631;51.962;5.974;2022-09-09T15:54:14;5.32;;;1.83;;
59756;SDS011;45631;51.962;5.974;2022-09-09T15:56:44;6.68;;;1.77;;
59756;SDS011;45631;51.962;5.974;2022-09-09T15:59:12;4.68;;;1.63;;